Time;durP1;ratioP1;P1;durP2;ratioP2;P2;SDS_P1;SDS_P2;PMS_P1;PMS_P2;Temp;Humidity;BMP_temperature;BMP_pressure;BME280_temperature;BME280_humidity;BME280_pressure;Samples;Min_cycle;Max_cycle;Signal;HPM_P1;HPM_P2
2021/01/27 00:03:34;;;;;;;6.72;2.67;;;-1.50;99.90;;;;;;8387281;28;20059;-70
2021/01/27 00:07:35;;;;;;;6.43;3.10;;;-1.60;99.90;;;;;;8383132;28;20029;-69
2021/01/27 00:11:35;;;;;;;6.55;2.63;;;-1.70;99.90;;;;;;8391383;28;20506;-70
2021/01/27 00:15:38;;;;;;;4.93;2.28;;;-1.70;99.90;;;;;;8394380;28;20807;-69
2021/01/27 00:19:39;;;;;;;3.40;1.77;;;-1.60;99.90;;;;;;8364755;28;20021;-69
2021/01/27 00:23:39;;;;;;;4.38;2.22;;;-1.60;99.90;;;;;;8358687;28;20780;-68
2021/01/27 00:27:40;;;;;;;7.22;2.58;;;-1.60;99.90;;;;;;8360334;28;20029;-68
2021/01/27 00:31:41;;;;;;;4.72;2.30;;;-1.60;99.90;;;;;;8359682;28;20029;-68
2021/01/27 00:35:46;;;;;;;4.45;1.85;;;-1.60;99.90;;;;;;8360570;28;20104;-68
2021/01/27 00:39:46;;;;;;;11.00;2.67;;;-1.70;99.90;;;;;;8359314;28;20032;-69
2021/01/27 00:43:47;;;;;;;4.47;1.30;;;-1.50;99.90;;;;;;8360345;28;20493;-69
2021/01/27 00:47:48;;;;;;;6.40;2.60;;;-1.60;99.90;;;;;;8360072;28;20036;-69
2021/01/27 00:51:48;;;;;;;4.75;2.53;;;-1.50;99.90;;;;;;8360468;28;20407;-69
2021/01/27 00:55:49;;;;;;;3.00;1.80;;;-1.50;99.90;;;;;;8384118;28;20506;-69
2021/01/27 00:59:49;;;;;;;3.78;2.13;;;-1.40;99.90;;;;;;8393611;28;20031;-69
2021/01/27 01:03:50;;;;;;;3.90;1.58;;;-1.40;99.90;;;;;;8393298;28;20465;-69
2021/01/27 01:07:51;;;;;;;4.30;2.60;;;-1.30;99.90;;;;;;8392713;28;20067;-69
2021/01/27 01:11:52;;;;;;;5.32;2.42;;;-1.30;99.90;;;;;;8392261;28;20070;-69
2021/01/27 01:15:53;;;;;;;7.00;2.50;;;-1.30;99.90;;;;;;8391148;28;20029;-69
2021/01/27 01:19:53;;;;;;;5.38;2.38;;;-1.30;99.90;;;;;;8391252;28;20059;-68
2021/01/27 01:23:54;;;;;;;3.72;2.40;;;-1.50;99.90;;;;;;8391738;28;20029;-69
2021/01/27 01:27:55;;;;;;;6.00;2.17;;;-1.50;99.90;;;;;;8392131;28;20033;-70
2021/01/27 01:31:56;;;;;;;4.82;2.00;;;-1.60;99.90;;;;;;8389275;28;20024;-70
2021/01/27 01:35:57;;;;;;;4.55;2.17;;;-1.40;99.90;;;;;;8389611;28;20078;-71
2021/01/27 01:39:58;;;;;;;9.38;2.20;;;-1.30;99.90;;;;;;8390648;28;20035;-70
2021/01/27 01:43:58;;;;;;;3.13;2.28;;;-1.30;99.90;;;;;;8390499;28;20533;-70
2021/01/27 01:48:07;;;;;;;5.82;2.22;;;-1.30;99.90;;;;;;8391641;28;20032;-70
2021/01/27 01:52:08;;;;;;;7.97;2.40;;;-1.30;99.90;;;;;;8390661;28;20040;-70
2021/01/27 01:56:12;;;;;;;4.20;2.25;;;-1.20;99.90;;;;;;8363526;28;20446;-70
2021/01/27 02:00:13;;;;;;;5.85;2.20;;;-1.20;99.90;;;;;;8358266;28;20054;-70
2021/01/27 02:04:15;;;;;;;3.60;2.10;;;-1.10;99.90;;;;;;8356384;28;20438;-70
2021/01/27 02:08:16;;;;;;;3.47;2.15;;;-1.10;99.90;;;;;;8357896;28;20446;-70
2021/01/27 02:12:41;;;;;;;4.50;2.60;;;-1.00;99.90;;;;;;8357443;28;20024;-69
2021/01/27 02:17:09;;;;;;;5.47;2.28;;;-1.10;99.90;;;;;;8357598;28;20031;-69
2021/01/27 02:21:39;;;;;;;5.50;2.22;;;-1.20;99.90;;;;;;8359673;28;20498;-69
2021/01/27 02:26:09;;;;;;;6.22;2.20;;;-1.10;99.90;;;;;;8361115;28;20373;-69
2021/01/27 02:30:36;;;;;;;6.10;2.13;;;-1.00;99.90;;;;;;8360109;28;20570;-69
2021/01/27 02:35:07;;;;;;;3.38;2.38;;;-1.20;99.90;;;;;;8360212;28;20087;-69
2021/01/27 02:39:26;;;;;;;4.78;2.30;;;-1.20;99.90;;;;;;8360615;28;20500;-69
2021/01/27 02:43:38;;;;;;;4.87;2.10;;;-1.20;99.90;;;;;;8358651;28;20143;-69
2021/01/27 02:47:54;;;;;;;6.47;2.60;;;-1.40;99.90;;;;;;8359720;28;20636;-69
2021/01/27 02:52:10;;;;;;;4.65;2.67;;;-1.70;99.90;;;;;;8359289;28;20115;-70
2021/01/27 02:56:25;;;;;;;3.83;2.38;;;-1.90;99.90;;;;;;8360244;28;20068;-69
2021/01/27 03:00:31;;;;;;;4.72;2.40;;;-2.00;99.90;;;;;;8359553;28;20028;-69
2021/01/27 03:04:58;;;;;;;4.20;2.47;;;-1.90;99.90;;;;;;8360006;28;20036;-70
2021/01/27 03:09:16;;;;;;;7.32;2.60;;;-2.20;99.90;;;;;;8359544;28;20442;-68
2021/01/27 03:13:16;;;;;;;4.68;2.17;;;-2.60;99.90;;;;;;8389073;28;20017;-69
2021/01/27 03:17:20;;;;;;;3.88;2.50;;;-2.80;99.90;;;;;;8393045;28;20052;-69
2021/01/27 03:21:27;;;;;;;3.65;2.40;;;-2.80;99.90;;;;;;8392904;28;20033;-69
2021/01/27 03:25:32;;;;;;;5.88;2.58;;;-2.70;99.90;;;;;;8392710;28;20081;-69
2021/01/27 03:29:45;;;;;;;4.13;2.33;;;-2.90;99.90;;;;;;8391682;28;20032;-70
2021/01/27 03:33:52;;;;;;;6.10;2.00;;;-2.80;99.90;;;;;;8392631;28;20028;-69
2021/01/27 03:37:59;;;;;;;4.07;2.28;;;-2.80;99.90;;;;;;8391568;28;20028;-69
2021/01/27 03:42:06;;;;;;;6.30;2.33;;;-2.80;99.90;;;;;;8392898;28;20107;-69
2021/01/27 03:46:30;;;;;;;3.55;2.58;;;-3.10;99.90;;;;;;8396334;28;20542;-70
2021/01/27 03:50:31;;;;;;;2.95;2.15;;;-3.50;99.90;;;;;;8399324;28;20020;-70
2021/01/27 03:54:37;;;;;;;5.35;2.80;;;-3.50;99.90;;;;;;8397752;28;20086;-70
2021/01/27 03:58:40;;;;;;;4.93;2.83;;;-3.30;99.90;;;;;;8397796;28;20024;-69
2021/01/27 04:02:42;;;;;;;7.13;3.53;;;-3.50;99.90;;;;;;8388572;28;20128;-69
2021/01/27 04:06:43;;;;;;;6.53;3.30;;;-3.60;99.90;;;;;;8365367;28;20626;-70
2021/01/27 04:10:43;;;;;;;8.82;3.42;;;-3.70;99.90;;;;;;8365128;28;20017;-69
2021/01/27 04:14:44;;;;;;;10.60;3.85;;;-3.40;99.90;;;;;;8365143;28;20036;-70
2021/01/27 04:18:44;;;;;;;11.98;4.85;;;-3.40;99.90;;;;;;8373051;28;20056;-70
2021/01/27 04:22:45;;;;;;;7.82;4.18;;;-3.30;99.90;;;;;;8398256;28;20402;-70
2021/01/27 04:26:45;;;;;;;4.63;2.80;;;-3.30;99.90;;;;;;8397871;28;20100;-69
2021/01/27 04:30:46;;;;;;;5.68;2.28;;;-3.20;99.90;;;;;;8392096;28;20063;-70
2021/01/27 04:34:46;;;;;;;4.00;2.30;;;-3.20;99.90;;;;;;8368653;28;20036;-71
2021/01/27 04:38:49;;;;;;;5.53;2.25;;;-3.30;99.90;;;;;;8375026;28;20032;-70
2021/01/27 04:42:52;;;;;;;6.20;2.78;;;-3.40;99.90;;;;;;8391003;28;20025;-70
2021/01/27 04:47:02;;;;;;;5.43;2.58;;;-3.40;99.90;;;;;;8378782;28;20086;-70
2021/01/27 04:51:03;;;;;;;;;;;-3.30;99.90;;;;;;8394152;28;20036;-69
2021/01/27 04:55:27;;;;;;;5.78;2.22;;;-3.40;99.90;;;;;;8394829;28;19904;-70
2021/01/27 04:59:44;;;;;;;8.68;3.53;;;-3.20;99.90;;;;;;8396285;28;20025;-71
2021/01/27 05:04:15;;;;;;;7.18;3.38;;;-3.40;99.90;;;;;;8378137;28;20025;-71
2021/01/27 05:08:31;;;;;;;5.32;3.35;;;-3.30;99.90;;;;;;8396719;28;20021;-70
2021/01/27 05:12:59;;;;;;;7.68;3.13;;;-3.30;99.90;;;;;;8392751;28;20037;-71
2021/01/27 05:17:06;;;;;;;5.57;2.58;;;-3.10;99.90;;;;;;8374089;28;20017;-72
2021/01/27 05:21:27;;;;;;;6.88;3.47;;;-3.10;99.90;;;;;;8363529;28;20021;-70
2021/01/27 05:25:36;;;;;;;5.38;2.85;;;-3.20;99.90;;;;;;8362739;28;20089;-71
2021/01/27 05:29:41;;;;;;;4.07;2.30;;;0.00;99.90;;;;;;8363174;28;20017;-73
2021/01/27 05:33:46;;;;;;;7.18;3.67;;;1.20;99.90;;;;;;8368010;28;20099;-72
2021/01/27 05:37:46;;;;;;;7.55;3.00;;;-0.20;99.90;;;;;;8388101;28;20617;-71
2021/01/27 05:41:47;;;;;;;4.47;1.90;;;-0.30;99.90;;;;;;8390697;28;20029;-71
2021/01/27 05:45:49;;;;;;;3.78;2.05;;;0.60;99.90;;;;;;8391271;28;20036;-70
2021/01/27 05:49:49;;;;;;;3.05;1.52;;;0.20;99.90;;;;;;8390672;28;20047;-68
2021/01/27 05:53:50;;;;;;;4.20;1.70;;;-0.90;99.90;;;;;;8387317;28;20052;-69
2021/01/27 05:57:59;;;;;;;5.95;2.45;;;-1.70;99.90;;;;;;8359853;28;20040;-68
2021/01/27 06:02:01;;;;;;;4.83;2.53;;;-2.00;99.90;;;;;;8388085;28;20024;-68
2021/01/27 06:06:09;;;;;;;4.20;2.92;;;-2.00;99.90;;;;;;8388627;28;20029;-67
2021/01/27 06:10:33;;;;;;;10.20;4.25;;;-2.20;99.90;;;;;;8390103;28;20033;-68
2021/01/27 06:14:33;;;;;;;8.40;4.35;;;-2.40;99.90;;;;;;8390164;28;20036;-68
2021/01/27 06:18:34;;;;;;;9.70;5.43;;;-2.20;99.90;;;;;;8390629;28;20074;-68
2021/01/27 06:23:09;;;;;;;10.50;4.57;;;-2.40;99.90;;;;;;8388473;28;20036;-68
2021/01/27 06:27:37;;;;;;;6.82;3.30;;;-2.60;99.90;;;;;;8389062;28;20028;-72
2021/01/27 06:32:01;;;;;;;4.28;2.50;;;-2.50;99.90;;;;;;8386094;28;20035;-71
2021/01/27 06:36:22;;;;;;;4.32;2.28;;;-2.50;99.90;;;;;;8388810;28;20123;-71
2021/01/27 06:40:37;;;;;;;4.55;2.10;;;-2.40;99.90;;;;;;8372279;28;20028;-70
2021/01/27 06:44:43;;;;;;;1.80;1.20;;;-2.10;99.90;;;;;;8358550;28;20056;-71
2021/01/27 06:49:18;;;;;;;2.35;1.50;;;-2.10;99.90;;;;;;8362931;28;20032;-69
2021/01/27 06:53:42;;;;;;;2.33;1.58;;;-2.40;99.90;;;;;;8388918;28;20525;-70
2021/01/27 06:58:06;;;;;;;4.50;1.83;;;-2.40;99.90;;;;;;8391884;28;20584;-76
2021/01/27 07:02:39;;;;;;;3.58;1.95;;;-2.40;99.90;;;;;;8384378;28;20063;-69
2021/01/27 07:06:43;;;;;;;2.67;1.77;;;-2.30;99.90;;;;;;8373195;28;20181;-70
2021/01/27 07:10:50;;;;;;;2.65;1.70;;;-2.30;99.90;;;;;;8380807;28;20482;-70
2021/01/27 07:15:01;;;;;;;16.27;8.77;;;-2.20;99.90;;;;;;8372339;28;20029;-71
2021/01/27 07:19:19;;;;;;;9.80;4.85;;;-2.10;99.90;;;;;;8374496;28;20031;-71
2021/01/27 07:24:01;;;;;;;9.32;5.13;;;-1.90;99.90;;;;;;8375014;28;20122;-70
2021/01/27 07:28:07;;;;;;;8.15;4.75;;;-1.90;99.90;;;;;;8370588;28;20078;-71
2021/01/27 07:32:19;;;;;;;12.90;6.05;;;-1.80;99.90;;;;;;8384457;28;20380;-70
2021/01/27 07:36:27;;;;;;;11.40;6.18;;;-1.60;99.90;;;;;;8389687;28;20017;-72
2021/01/27 07:40:53;;;;;;;5.53;3.05;;;-1.30;99.90;;;;;;8386604;28;20013;-70
2021/01/27 07:44:57;;;;;;;7.10;3.67;;;-1.30;99.90;;;;;;8388737;28;20048;-71
2021/01/27 07:49:04;;;;;;;7.95;4.90;;;-1.40;99.90;;;;;;8380987;28;20032;-71
2021/01/27 07:53:22;;;;;;;3.20;1.95;;;-1.20;99.90;;;;;;8388958;28;20062;-69
2021/01/27 07:57:49;;;;;;;2.35;1.30;;;-1.10;99.90;;;;;;8386374;28;20142;-68
2021/01/27 08:01:56;;;;;;;1.40;1.00;;;-1.00;99.90;;;;;;8389695;28;20040;-67
2021/01/27 08:06:19;;;;;;;4.00;1.83;;;-0.70;99.90;;;;;;8364151;28;20028;-67
2021/01/27 08:10:26;;;;;;;7.68;4.63;;;-0.50;99.90;;;;;;8357043;28;20017;-68
2021/01/27 08:15:02;;;;;;;3.80;2.25;;;-0.50;99.90;;;;;;8360072;28;20110;-67
2021/01/27 08:19:12;;;;;;;6.68;1.80;;;-0.30;99.90;;;;;;8356216;28;20029;-67
2021/01/27 08:23:21;;;;;;;1.80;1.20;;;-0.20;99.90;;;;;;8368501;28;20037;-68
2021/01/27 08:27:31;;;;;;;1.55;1.30;;;-0.10;99.90;;;;;;8372990;28;20078;-67
2021/01/27 08:31:31;;;;;;;3.60;1.17;;;-0.10;99.90;;;;;;8375419;28;20051;-68
2021/01/27 08:35:37;;;;;;;1.73;1.25;;;-0.10;99.90;;;;;;8379096;28;20021;-70
2021/01/27 08:39:38;;;;;;;2.08;1.40;;;-0.10;99.90;;;;;;8380219;28;20422;-70
2021/01/27 08:43:42;;;;;;;2.75;2.00;;;0.10;99.90;;;;;;8384610;28;20089;-71
2021/01/27 08:47:44;;;;;;;2.88;1.70;;;0.30;99.90;;;;;;8375500;28;20388;-70
2021/01/27 08:51:50;;;;;;;4.13;1.85;;;0.40;99.90;;;;;;8362922;28;20399;-68
2021/01/27 08:55:51;;;;;;;3.88;2.00;;;0.50;99.90;;;;;;8363199;28;20025;-68
2021/01/27 08:59:59;;;;;;;2.50;1.92;;;0.40;99.90;;;;;;8377831;28;20078;-67
2021/01/27 09:04:01;;;;;;;2.88;2.05;;;0.50;99.90;;;;;;8363353;28;20503;-67
2021/01/27 09:08:10;;;;;;;4.03;1.95;;;0.50;99.90;;;;;;8370810;28;20066;-68
2021/01/27 09:12:11;;;;;;;5.97;2.63;;;0.40;99.90;;;;;;8376239;28;20028;-67
2021/01/27 09:16:15;;;;;;;3.22;2.08;;;0.50;99.90;;;;;;8377144;28;20042;-68
2021/01/27 09:20:22;;;;;;;3.40;2.20;;;0.50;99.90;;;;;;8396521;28;20025;-67
2021/01/27 09:24:40;;;;;;;4.90;2.90;;;0.40;99.90;;;;;;8377917;28;20118;-68
2021/01/27 09:28:42;;;;;;;6.70;2.53;;;0.50;99.90;;;;;;8378398;28;20415;-68
2021/01/27 09:32:42;;;;;;;3.85;1.55;;;0.60;99.90;;;;;;8388868;28;20159;-68
2021/01/27 09:36:44;;;;;;;2.55;1.65;;;0.40;99.90;;;;;;8375449;28;20036;-68
2021/01/27 09:40:52;;;;;;;3.65;1.88;;;0.30;99.90;;;;;;8378900;28;20404;-67
2021/01/27 09:45:04;;;;;;;3.90;2.28;;;0.40;99.90;;;;;;8391815;28;20030;-67
2021/01/27 09:49:11;;;;;;;3.47;2.28;;;0.20;99.90;;;;;;8377410;28;20407;-67
2021/01/27 09:53:28;;;;;;;8.13;2.65;;;0.00;99.90;;;;;;8373357;28;20036;-68
2021/01/27 09:57:30;;;;;;;1.98;1.13;;;0.00;99.90;;;;;;8367345;28;20025;-68
2021/01/27 10:01:32;;;;;;;2.22;1.58;;;0.10;99.90;;;;;;8377315;28;20513;-67
2021/01/27 10:05:41;;;;;;;2.35;1.70;;;0.40;99.90;;;;;;8378112;28;20016;-68
2021/01/27 10:10:14;;;;;;;3.92;1.90;;;0.50;99.90;;;;;;8377140;28;20028;-68
2021/01/27 10:14:22;;;;;;;4.95;2.20;;;0.50;99.90;;;;;;8378585;28;20407;-68
2021/01/27 10:18:22;;;;;;;3.53;2.10;;;0.60;99.90;;;;;;8394284;28;20290;-68
2021/01/27 10:22:29;;;;;;;3.47;2.13;;;0.40;99.90;;;;;;8394203;28;20048;-67
2021/01/27 10:26:35;;;;;;;6.53;2.42;;;0.10;99.90;;;;;;8391235;28;20028;-67
2021/01/27 10:30:49;;;;;;;3.47;1.75;;;0.10;99.90;;;;;;8360496;28;20017;-68
2021/01/27 10:34:51;;;;;;;3.17;2.22;;;0.10;99.90;;;;;;8364816;28;20815;-68
2021/01/27 10:39:29;;;;;;;3.45;2.33;;;0.20;99.90;;;;;;8377768;28;20025;-67
2021/01/27 10:43:30;;;;;;;4.93;2.15;;;0.40;99.90;;;;;;8360152;28;20024;-68
2021/01/27 10:47:31;;;;;;;1.50;1.13;;;0.40;99.90;;;;;;8358410;28;20029;-68
2021/01/27 10:51:32;;;;;;;5.05;2.53;;;0.40;99.90;;;;;;8379776;28;20406;-67
2021/01/27 10:55:35;;;;;;;2.80;2.00;;;0.20;99.90;;;;;;8392551;28;20135;-67
2021/01/27 10:59:36;;;;;;;5.45;2.70;;;0.10;99.90;;;;;;8382347;28;20021;-69
2021/01/27 11:03:36;;;;;;;4.35;2.80;;;0.10;99.90;;;;;;8372343;28;20116;-67
2021/01/27 11:07:37;;;;;;;2.97;1.98;;;0.00;99.90;;;;;;8374651;28;20035;-68
2021/01/27 11:11:38;;;;;;;4.43;2.45;;;0.00;99.90;;;;;;8394762;28;20025;-68
2021/01/27 11:15:39;;;;;;;5.10;2.83;;;0.00;99.90;;;;;;8374902;28;20029;-68
2021/01/27 11:19:41;;;;;;;5.53;3.15;;;-0.10;99.90;;;;;;8369013;28;20029;-68
2021/01/27 11:23:41;;;;;;;2.90;2.10;;;-0.10;99.90;;;;;;8365674;28;20117;-68
2021/01/27 11:27:42;;;;;;;6.00;2.80;;;0.00;99.90;;;;;;8361917;28;20021;-67
2021/01/27 11:31:42;;;;;;;2.60;1.67;;;0.10;99.90;;;;;;8358693;28;20029;-68
2021/01/27 11:35:43;;;;;;;4.82;3.03;;;0.20;99.90;;;;;;8369628;28;20108;-68
2021/01/27 11:39:45;;;;;;;4.13;2.60;;;0.20;99.90;;;;;;8360710;28;20025;-68
2021/01/27 11:43:46;;;;;;;3.53;2.63;;;0.40;99.90;;;;;;8377815;28;20029;-68
2021/01/27 11:47:47;;;;;;;2.20;1.52;;;0.50;99.90;;;;;;8382974;28;20506;-68
2021/01/27 11:51:48;;;;;;;4.07;2.55;;;0.40;99.90;;;;;;8372532;28;20051;-68
2021/01/27 11:55:49;;;;;;;3.83;2.88;;;0.50;99.90;;;;;;8378389;28;20063;-67
2021/01/27 11:59:50;;;;;;;5.07;2.45;;;0.30;99.90;;;;;;8375133;28;20020;-69
2021/01/27 12:03:50;;;;;;;2.28;1.65;;;0.50;99.90;;;;;;8379623;28;20040;-68
2021/01/27 12:07:53;;;;;;;4.20;2.50;;;0.50;99.90;;;;;;8377694;28;20032;-68
2021/01/27 12:11:55;;;;;;;4.18;2.70;;;0.80;99.90;;;;;;8380670;28;20486;-67
2021/01/27 12:15:56;;;;;;;2.88;2.42;;;0.60;99.90;;;;;;8372556;28;20116;-70
2021/01/27 12:19:56;;;;;;;4.53;2.72;;;0.50;99.90;;;;;;8377572;28;20469;-70
2021/01/27 12:23:57;;;;;;;3.33;2.25;;;0.40;99.90;;;;;;8377221;28;20028;-71
2021/01/27 12:27:57;;;;;;;3.22;2.33;;;0.50;99.90;;;;;;8375713;28;20033;-73
2021/01/27 12:31:58;;;;;;;3.83;2.42;;;0.60;99.90;;;;;;8376868;28;20376;-71
2021/01/27 12:35:58;;;;;;;3.53;2.13;;;0.60;99.90;;;;;;8377565;28;20721;-71
2021/01/27 12:39:59;;;;;;;3.65;2.65;;;0.70;99.90;;;;;;8373285;28;20047;-70
2021/01/27 12:44:00;;;;;;;4.85;1.42;;;0.80;99.90;;;;;;8373691;28;20032;-69
2021/01/27 12:48:00;;;;;;;2.85;1.90;;;0.90;99.90;;;;;;8367162;28;20025;-67
2021/01/27 12:52:01;;;;;;;4.43;2.60;;;0.90;99.90;;;;;;8379314;28;20095;-70
2021/01/27 12:56:02;;;;;;;1.73;1.20;;;0.90;99.90;;;;;;8388752;28;20379;-68
2021/01/27 13:00:06;;;;;;;3.72;2.15;;;1.10;99.90;;;;;;8370914;28;20084;-68
2021/01/27 13:04:06;;;;;;;2.55;1.80;;;1.20;99.90;;;;;;8360443;28;20483;-68
2021/01/27 13:08:07;;;;;;;2.25;1.63;;;1.40;99.90;;;;;;8371604;28;20055;-70
2021/01/27 13:12:08;;;;;;;3.33;2.42;;;1.40;99.90;;;;;;8387711;28;20032;-68
2021/01/27 13:16:09;;;;;;;3.50;2.63;;;1.40;99.90;;;;;;8384370;28;20036;-71
2021/01/27 13:20:11;;;;;;;4.15;2.20;;;1.50;99.90;;;;;;8379648;28;20438;-71
2021/01/27 13:24:11;;;;;;;1.85;1.60;;;1.80;99.90;;;;;;8396322;28;20116;-70
2021/01/27 13:28:12;;;;;;;2.70;1.63;;;1.60;99.90;;;;;;8396421;28;20433;-71
2021/01/27 13:32:13;;;;;;;3.85;2.10;;;1.50;99.90;;;;;;8394083;28;20082;-71
2021/01/27 13:36:15;;;;;;;2.33;1.80;;;1.90;99.90;;;;;;8375019;28;20033;-70
2021/01/27 13:40:16;;;;;;;2.17;1.65;;;1.90;99.90;;;;;;8373216;28;20099;-70
2021/01/27 13:44:18;;;;;;;1.55;1.13;;;1.80;99.90;;;;;;8376466;28;20060;-70
2021/01/27 13:48:19;;;;;;;2.15;1.45;;;1.50;99.90;;;;;;8377198;28;20498;-70
2021/01/27 13:52:19;;;;;;;1.52;0.80;;;1.70;99.90;;;;;;8377129;28;20021;-70
2021/01/27 13:56:20;;;;;;;2.58;1.35;;;1.80;99.90;;;;;;8377751;28;20037;-71
2021/01/27 14:00:21;;;;;;;0.50;0.40;;;1.60;99.90;;;;;;8377050;28;20016;-70
2021/01/27 14:04:21;;;;;;;0.40;0.40;;;1.70;99.90;;;;;;8374620;28;20094;-68
2021/01/27 14:08:22;;;;;;;0.50;0.50;;;1.60;99.90;;;;;;8375405;28;20024;-69
2021/01/27 14:12:23;;;;;;;0.65;0.52;;;1.80;99.90;;;;;;8360142;28;20488;-71
2021/01/27 14:16:23;;;;;;;1.42;0.90;;;1.80;99.90;;;;;;8368866;28;20035;-71
2021/01/27 14:20:27;;;;;;;0.77;0.60;;;1.80;99.90;;;;;;8366532;28;20048;-70
2021/01/27 14:24:27;;;;;;;1.02;0.85;;;1.60;99.90;;;;;;8371176;28;20036;-71
2021/01/27 14:28:28;;;;;;;1.30;0.63;;;1.70;99.90;;;;;;8384225;28;20054;-70
2021/01/27 14:32:28;;;;;;;0.98;0.70;;;1.80;99.90;;;;;;8394229;28;20486;-70
2021/01/27 14:36:29;;;;;;;1.35;1.25;;;1.90;99.90;;;;;;8393735;28;20033;-71
2021/01/27 14:40:31;;;;;;;2.75;1.70;;;1.70;99.90;;;;;;8384389;28;20111;-71
2021/01/27 14:44:34;;;;;;;6.78;3.70;;;1.50;99.90;;;;;;8372978;28;20068;-70
2021/01/27 14:48:34;;;;;;;1.10;1.00;;;1.30;99.90;;;;;;8371928;28;20508;-71
2021/01/27 14:52:35;;;;;;;3.63;2.40;;;1.10;99.90;;;;;;8384217;28;20040;-70
2021/01/27 14:56:37;;;;;;;6.53;3.80;;;1.00;99.90;;;;;;8380330;28;20025;-75
2021/01/27 15:00:37;;;;;;;1.00;0.80;;;0.80;99.90;;;;;;8357618;28;20029;-70
2021/01/27 15:04:38;;;;;;;3.10;2.28;;;0.70;99.90;;;;;;8358489;28;20167;-71
2021/01/27 15:08:39;;;;;;;4.07;1.83;;;0.60;99.90;;;;;;8358637;28;20434;-70
2021/01/27 15:12:40;;;;;;;4.40;1.00;;;0.50;99.90;;;;;;8365320;28;20055;-70
2021/01/27 15:16:40;;;;;;;0.47;0.47;;;0.50;99.90;;;;;;8374917;28;20049;-72
2021/01/27 15:20:41;;;;;;;3.28;1.83;;;0.50;99.90;;;;;;8373949;28;20059;-70
2021/01/27 15:24:41;;;;;;;0.80;0.65;;;0.50;99.90;;;;;;8368207;28;20037;-70
2021/01/27 15:28:42;;;;;;;2.50;1.80;;;0.50;99.90;;;;;;8365354;28;20078;-70
2021/01/27 15:32:43;;;;;;;3.20;2.30;;;0.50;99.90;;;;;;8369740;28;20036;-72
2021/01/27 15:36:44;;;;;;;5.30;2.85;;;0.60;99.90;;;;;;8370276;28;20052;-70
2021/01/27 15:40:45;;;;;;;1.35;1.02;;;0.60;99.90;;;;;;8367487;28;20082;-70
2021/01/27 15:44:47;;;;;;;3.67;2.75;;;0.50;99.90;;;;;;8367690;28;20445;-71
2021/01/27 15:48:48;;;;;;;1.33;1.20;;;0.40;99.90;;;;;;8366743;28;20029;-71
2021/01/27 15:52:49;;;;;;;6.18;2.80;;;0.40;99.90;;;;;;8366167;28;20031;-68
2021/01/27 15:56:50;;;;;;;4.97;2.80;;;0.50;99.90;;;;;;8360296;28;20013;-67
2021/01/27 16:00:51;;;;;;;2.67;2.08;;;0.50;99.90;;;;;;8371945;28;20036;-67
2021/01/27 16:04:51;;;;;;;3.28;2.70;;;0.50;99.90;;;;;;8372117;28;20025;-66
2021/01/27 16:08:52;;;;;;;2.92;2.13;;;0.50;99.90;;;;;;8377656;28;20086;-67
2021/01/27 16:12:55;;;;;;;3.67;2.58;;;0.50;99.90;;;;;;8375949;28;20056;-66
2021/01/27 16:16:56;;;;;;;7.13;3.00;;;0.50;99.90;;;;;;8387135;28;20024;-70
2021/01/27 16:20:57;;;;;;;6.30;2.85;;;0.50;99.90;;;;;;8398028;28;20705;-72
2021/01/27 16:24:58;;;;;;;5.35;4.05;;;0.50;99.90;;;;;;8392364;28;20025;-73
2021/01/27 16:28:58;;;;;;;2.83;2.47;;;0.50;99.90;;;;;;8396619;28;20020;-71
2021/01/27 16:33:00;;;;;;;6.72;3.70;;;0.50;99.90;;;;;;8385407;28;20119;-73
2021/01/27 16:37:01;;;;;;;2.88;2.35;;;0.50;99.90;;;;;;8389131;28;20064;-73
2021/01/27 16:41:02;;;;;;;4.15;3.03;;;0.60;99.90;;;;;;8385813;28;20395;-74
2021/01/27 16:45:05;;;;;;;5.32;3.75;;;0.50;99.90;;;;;;8396058;28;20070;-73
2021/01/27 16:49:06;;;;;;;3.85;2.83;;;0.60;99.90;;;;;;8397447;28;20031;-73
2021/01/27 16:53:07;;;;;;;4.38;3.78;;;0.60;99.90;;;;;;8394921;28;20024;-73
2021/01/27 16:57:08;;;;;;;4.45;3.05;;;0.60;99.90;;;;;;8391512;28;20182;-73
2021/01/27 17:01:08;;;;;;;5.80;4.03;;;0.50;99.90;;;;;;8388356;28;20037;-73
2021/01/27 17:05:10;;;;;;;4.32;2.97;;;0.50;99.90;;;;;;8383014;28;20517;-73
2021/01/27 17:09:11;;;;;;;49.83;17.95;;;0.50;99.90;;;;;;8370220;28;20071;-72
2021/01/27 17:13:12;;;;;;;42.03;13.90;;;0.50;99.90;;;;;;8377176;28;20040;-74
2021/01/27 17:17:15;;;;;;;6.90;4.78;;;0.40;99.90;;;;;;8370835;28;20352;-74
2021/01/27 17:21:16;;;;;;;6.50;4.32;;;0.30;99.90;;;;;;8368751;28;20083;-74
2021/01/27 17:25:20;;;;;;;8.88;6.55;;;0.40;99.90;;;;;;8368097;28;20372;-74
2021/01/27 17:29:21;;;;;;;9.05;6.47;;;0.40;99.90;;;;;;8367946;28;20031;-74
2021/01/27 17:33:21;;;;;;;8.70;5.85;;;0.50;99.90;;;;;;8364285;28;20389;-71
2021/01/27 17:37:22;;;;;;;7.78;4.65;;;0.50;99.90;;;;;;8366435;28;20032;-72
2021/01/27 17:41:23;;;;;;;7.63;4.72;;;0.60;99.90;;;;;;8358962;28;20400;-71
2021/01/27 17:45:27;;;;;;;13.93;8.52;;;0.50;99.90;;;;;;8363140;28;20507;-72
2021/01/27 17:49:28;;;;;;;14.55;10.63;;;0.50;99.90;;;;;;8365561;28;20039;-71
2021/01/27 17:53:28;;;;;;;11.55;7.40;;;0.60;99.90;;;;;;8366270;28;20025;-72
2021/01/27 17:57:29;;;;;;;10.77;7.20;;;0.50;99.90;;;;;;8364136;28;20028;-71
2021/01/27 18:01:29;;;;;;;14.50;9.32;;;0.60;99.90;;;;;;8363806;28;20025;-71
2021/01/27 18:05:33;;;;;;;5.95;3.63;;;0.60;99.90;;;;;;8359623;28;20025;-71
2021/01/27 18:09:34;;;;;;;8.88;5.97;;;0.60;99.90;;;;;;8355886;28;20032;-72
2021/01/27 18:13:38;;;;;;;10.15;7.20;;;0.50;99.90;;;;;;8365407;28;20028;-74
2021/01/27 18:17:38;;;;;;;12.05;9.10;;;0.50;99.90;;;;;;8368526;28;20033;-76
2021/01/27 18:21:41;;;;;;;13.32;8.10;;;0.60;99.90;;;;;;8365880;28;20029;-75
2021/01/27 18:25:45;;;;;;;8.13;5.20;;;0.50;99.90;;;;;;8359634;28;20033;-74
2021/01/27 18:29:47;;;;;;;10.82;8.05;;;0.50;99.90;;;;;;8366296;28;20521;-74
2021/01/27 18:33:47;;;;;;;11.50;7.95;;;0.60;99.90;;;;;;8359022;28;20066;-72
2021/01/27 18:37:49;;;;;;;8.13;5.70;;;0.50;99.90;;;;;;8361481;28;20670;-72
2021/01/27 18:41:50;;;;;;;6.60;4.45;;;0.60;99.90;;;;;;8377386;28;20029;-72
2021/01/27 18:45:53;;;;;;;16.00;7.25;;;0.60;99.90;;;;;;8362484;28;20100;-72
2021/01/27 18:49:55;;;;;;;14.15;9.38;;;0.60;99.90;;;;;;8367712;28;20016;-75
2021/01/27 18:53:56;;;;;;;14.38;10.05;;;0.70;99.90;;;;;;8363843;28;20079;-76
2021/01/27 18:57:56;;;;;;;13.75;9.13;;;0.70;99.90;;;;;;8361022;28;20103;-72
2021/01/27 19:01:57;;;;;;;11.93;8.20;;;0.70;99.90;;;;;;8361682;28;20622;-72
2021/01/27 19:05:58;;;;;;;11.50;7.68;;;0.70;99.90;;;;;;8361367;28;20037;-72
2021/01/27 19:09:58;;;;;;;7.55;4.75;;;0.80;99.90;;;;;;8355075;28;20095;-71
2021/01/27 19:13:59;;;;;;;15.73;10.30;;;0.80;99.90;;;;;;8355813;28;20079;-72
2021/01/27 19:18:00;;;;;;;13.57;9.18;;;0.70;99.90;;;;;;8363769;28;20033;-73
2021/01/27 19:22:02;;;;;;;12.13;7.93;;;0.80;99.90;;;;;;8361528;28;20059;-71
2021/01/27 19:26:04;;;;;;;10.23;6.75;;;0.80;99.90;;;;;;8357775;28;20053;-72
2021/01/27 19:30:08;;;;;;;18.35;10.13;;;0.90;99.90;;;;;;8363208;28;20713;-72
2021/01/27 19:34:08;;;;;;;16.20;11.02;;;0.90;99.90;;;;;;8366846;28;20609;-71
2021/01/27 19:38:10;;;;;;;18.23;11.45;;;0.90;99.90;;;;;;8368543;28;20051;-71
2021/01/27 19:42:11;;;;;;;16.88;11.10;;;1.00;99.90;;;;;;8361555;28;20078;-71
2021/01/27 19:46:11;;;;;;;16.70;11.63;;;1.10;99.90;;;;;;8361853;28;20588;-70
2021/01/27 19:50:13;;;;;;;19.35;12.75;;;1.00;99.90;;;;;;8353243;28;20029;-70
2021/01/27 19:54:14;;;;;;;18.65;12.77;;;1.00;99.90;;;;;;8364830;28;20040;-69
2021/01/27 19:58:14;;;;;;;14.60;10.10;;;1.10;99.90;;;;;;8366483;28;20025;-73
2021/01/27 20:02:16;;;;;;;14.15;9.00;;;1.00;99.90;;;;;;8352830;28;20561;-73
2021/01/27 20:06:17;;;;;;;10.95;4.00;;;1.10;99.90;;;;;;8352395;28;20129;-74
2021/01/27 20:10:21;;;;;;;12.63;7.90;;;1.20;99.90;;;;;;8370679;28;20028;-73
2021/01/27 20:14:22;;;;;;;15.70;9.95;;;1.10;99.90;;;;;;8367726;28;20023;-72
2021/01/27 20:18:26;;;;;;;22.02;12.90;;;1.10;99.90;;;;;;8362326;28;20028;-72
2021/01/27 20:22:27;;;;;;;17.15;10.85;;;1.10;99.90;;;;;;8369775;28;20115;-72
2021/01/27 20:26:27;;;;;;;20.35;11.95;;;1.20;99.90;;;;;;8362846;28;20045;-72
2021/01/27 20:30:30;;;;;;;26.20;14.52;;;1.10;99.90;;;;;;8381239;28;20028;-73
2021/01/27 20:34:30;;;;;;;17.52;11.95;;;1.10;99.90;;;;;;8371406;28;20491;-74
2021/01/27 20:38:35;;;;;;;87.47;39.53;;;1.20;99.90;;;;;;8379514;28;20021;-73
2021/01/27 20:42:35;;;;;;;21.75;14.15;;;1.20;99.90;;;;;;8376378;28;20024;-73
2021/01/27 20:46:36;;;;;;;6.38;3.80;;;1.30;99.90;;;;;;8375036;28;20108;-72
2021/01/27 20:50:37;;;;;;;18.63;11.73;;;1.30;99.90;;;;;;8380648;28;20040;-72
2021/01/27 20:54:37;;;;;;;15.90;9.60;;;1.30;99.90;;;;;;8379207;28;20032;-72
2021/01/27 20:58:38;;;;;;;18.90;12.25;;;1.20;99.90;;;;;;8360795;28;20115;-72
2021/01/27 21:02:38;;;;;;;19.02;12.10;;;1.20;99.90;;;;;;8369799;28;20040;-72
2021/01/27 21:06:39;;;;;;;19.45;11.95;;;1.30;99.90;;;;;;8375994;28;20033;-72
2021/01/27 21:10:42;;;;;;;16.92;10.98;;;1.30;99.90;;;;;;8375034;28;20150;-72
2021/01/27 21:14:43;;;;;;;17.00;10.75;;;1.40;99.90;;;;;;8382295;28;20111;-73
2021/01/27 21:18:43;;;;;;;16.52;10.80;;;1.40;99.90;;;;;;8378840;28;20419;-73
2021/01/27 21:22:44;;;;;;;14.10;9.40;;;1.40;99.90;;;;;;8387599;28;20498;-72